createdAt,value
2019-03-10T00:01:45.048Z,38.97
2019-03-10T00:04:14.939Z,32.77
2019-03-10T00:06:44.783Z,28.80
2019-03-10T00:09:15.466Z,36.77
2019-03-10T00:11:47.222Z,39.43
2019-03-10T00:14:17.212Z,26.33
2019-03-10T00:16:47.461Z,27.83
2019-03-10T00:19:17.349Z,39.17
2019-03-10T00:21:47.368Z,34.90
2019-03-10T00:24:17.177Z,33.23
2019-03-10T00:26:47.323Z,30.43
2019-03-10T00:29:17.182Z,39.93
2019-03-10T00:31:46.795Z,40.20
2019-03-10T00:34:16.966Z,40.10
2019-03-10T00:36:47.108Z,39.40
2019-03-10T00:39:53.338Z,39.87
2019-03-10T00:43:18.756Z,24.03
2019-03-10T00:46:24.162Z,36.00
2019-03-10T00:49:40.009Z,36.97
2019-03-10T00:52:19.486Z,34.93
2019-03-10T00:54:49.320Z,32.03
2019-03-10T00:57:18.989Z,28.63
2019-03-10T00:59:48.844Z,27.63
2019-03-10T01:02:18.686Z,31.20
2019-03-10T01:04:48.480Z,36.73
2019-03-10T01:07:18.584Z,29.63
2019-03-10T01:09:48.635Z,40.67
2019-03-10T01:12:19.178Z,42.13
2019-03-10T01:14:48.919Z,25.07
2019-03-10T01:17:19.684Z,26.57
2019-03-10T01:19:50.246Z,29.17
2019-03-10T01:22:20.760Z,36.27
2019-03-10T01:24:50.501Z,25.07
2019-03-10T01:27:20.326Z,36.07
2019-03-10T01:29:50.639Z,24.63
2019-03-10T01:32:56.226Z,30.30
2019-03-10T01:35:35.826Z,27.80
2019-03-10T01:38:05.736Z,30.30
2019-03-10T01:40:36.007Z,28.80
2019-03-10T01:43:05.923Z,30.07
2019-03-10T01:45:36.172Z,31.63
2019-03-10T01:48:06.226Z,30.87
2019-03-10T01:50:35.953Z,22.33
2019-03-10T01:53:05.759Z,24.63
2019-03-10T01:55:35.564Z,19.63
2019-03-10T01:58:05.330Z,34.13
2019-03-10T02:00:35.338Z,28.20
2019-03-10T02:03:05.068Z,27.03
2019-03-10T02:05:35.017Z,22.00
2019-03-10T02:08:05.349Z,42.30
2019-03-10T02:10:35.540Z,32.00
2019-03-10T02:13:05.467Z,30.93
2019-03-10T02:15:35.874Z,30.37
2019-03-10T02:18:06.160Z,33.67
2019-03-10T02:20:36.042Z,25.10
2019-03-10T02:23:05.804Z,33.30
2019-03-10T02:25:36.037Z,19.53
2019-03-10T02:28:05.862Z,32.63
2019-03-10T02:30:36.227Z,30.20
2019-03-10T02:33:06.257Z,38.83
2019-03-10T02:35:35.992Z,36.10
2019-03-10T02:38:06.165Z,24.20
2019-03-10T02:40:35.948Z,23.63
2019-03-10T02:43:06.477Z,33.70
2019-03-10T02:45:36.293Z,26.80
2019-03-10T02:48:06.395Z,32.33
2019-03-10T02:50:36.112Z,34.60
2019-03-10T02:53:05.904Z,30.73
2019-03-10T02:55:35.755Z,25.43
2019-03-10T02:58:05.523Z,35.30
2019-03-10T03:00:35.370Z,24.40
2019-03-10T03:03:05.057Z,31.90
2019-03-10T03:05:35.148Z,24.67
2019-03-10T03:08:04.888Z,29.90
2019-03-10T03:10:34.746Z,35.23
2019-03-10T03:13:04.807Z,30.97
2019-03-10T03:15:34.862Z,25.83
2019-03-10T03:18:04.667Z,28.83
2019-03-10T03:20:34.583Z,34.93
2019-03-10T03:23:04.656Z,29.67
2019-03-10T03:25:34.761Z,32.97
2019-03-10T03:28:04.438Z,28.83
2019-03-10T03:30:34.463Z,30.80
2019-03-10T03:33:04.411Z,36.10
2019-03-10T03:35:54.175Z,35.63
2019-03-10T03:38:27.252Z,33.93
2019-03-10T03:41:01.297Z,36.30
2019-03-10T03:43:31.748Z,30.90
2019-03-10T03:46:01.816Z,38.13
2019-03-10T03:48:31.556Z,22.73
2019-03-10T03:51:01.372Z,38.73
2019-03-10T03:53:31.371Z,33.67
2019-03-10T03:56:01.445Z,18.97
2019-03-10T03:58:31.207Z,40.87
2019-03-10T04:01:13.277Z,23.47
2019-03-10T04:03:43.022Z,24.40
2019-03-10T04:06:12.689Z,23.00
2019-03-10T04:08:42.821Z,23.43
2019-03-10T04:11:12.714Z,26.07
2019-03-10T04:13:42.671Z,20.27
2019-03-10T04:16:12.961Z,36.77
2019-03-10T04:18:42.808Z,17.57
2019-03-10T04:21:14.537Z,18.67
2019-03-10T04:23:44.972Z,26.90
2019-03-10T04:26:14.673Z,24.80
2019-03-10T04:28:44.367Z,27.57
2019-03-10T04:31:13.998Z,22.63
2019-03-10T04:33:43.812Z,21.40
2019-03-10T04:36:13.434Z,16.60
2019-03-10T04:38:43.129Z,21.03
2019-03-10T04:41:12.976Z,26.60
2019-03-10T04:43:43.071Z,25.13
2019-03-10T04:46:12.762Z,16.13
2019-03-10T04:48:42.479Z,14.97
2019-03-10T04:51:12.165Z,17.60
2019-03-10T04:53:41.903Z,15.70
2019-03-10T04:56:26.987Z,30.23
2019-03-10T04:58:56.651Z,21.87
2019-03-10T05:01:26.356Z,18.07
2019-03-10T05:03:56.222Z,21.77
2019-03-10T05:06:25.952Z,19.87
2019-03-10T05:08:55.626Z,12.27
2019-03-10T05:11:25.379Z,24.73
2019-03-10T05:13:55.236Z,18.40
2019-03-10T05:16:25.613Z,17.77
2019-03-10T05:18:56.807Z,22.50
2019-03-10T05:21:26.744Z,14.30
2019-03-10T05:23:57.630Z,27.13
2019-03-10T05:26:27.471Z,18.37
2019-03-10T05:28:57.445Z,21.00
2019-03-10T05:31:27.156Z,20.70
2019-03-10T05:33:57.231Z,27.33
2019-03-10T05:36:26.900Z,21.77
2019-03-10T05:38:56.703Z,25.67
2019-03-10T05:41:26.465Z,16.80
2019-03-10T05:43:56.105Z,17.50
2019-03-10T05:46:25.865Z,20.43
2019-03-10T05:48:55.637Z,18.80
2019-03-10T05:51:25.800Z,22.57
2019-03-10T05:53:55.456Z,17.97
2019-03-10T05:56:25.157Z,12.37
2019-03-10T05:58:54.814Z,15.93
2019-03-10T06:01:24.510Z,13.20
2019-03-10T06:03:54.119Z,25.43
2019-03-10T06:06:23.935Z,14.73
2019-03-10T06:08:53.577Z,16.70
2019-03-10T06:11:23.317Z,29.77
2019-03-10T06:13:53.020Z,21.30
2019-03-10T06:16:22.965Z,18.00
2019-03-10T06:18:53.166Z,15.93
2019-03-10T06:21:23.000Z,23.03
2019-03-10T06:23:52.764Z,16.33
2019-03-10T06:26:22.508Z,19.73
2019-03-10T06:28:52.187Z,16.37
2019-03-10T06:31:21.938Z,12.73
2019-03-10T06:33:51.607Z,14.93
2019-03-10T06:36:21.684Z,25.80
2019-03-10T06:38:51.838Z,18.43
2019-03-10T06:41:21.914Z,19.10
2019-03-10T06:43:51.490Z,17.80
2019-03-10T06:46:21.482Z,24.17
2019-03-10T06:48:51.207Z,26.80
2019-03-10T06:51:20.841Z,20.63
2019-03-10T06:53:50.493Z,16.97
2019-03-10T06:56:20.342Z,16.07
2019-03-10T06:58:49.998Z,13.53
2019-03-10T07:01:19.764Z,20.90
2019-03-10T07:03:49.433Z,16.60
2019-03-10T07:06:19.066Z,10.00
2019-03-10T07:08:48.748Z,18.80
2019-03-10T07:11:18.481Z,18.07
2019-03-10T07:13:48.178Z,17.37
2019-03-10T07:16:17.883Z,15.60
2019-03-10T07:18:47.576Z,14.53
2019-03-10T07:21:17.183Z,7.93
2019-03-10T07:23:46.908Z,17.47
2019-03-10T07:26:16.942Z,18.17
2019-03-10T07:29:14.724Z,20.33
2019-03-10T07:31:54.933Z,18.93
2019-03-10T07:34:52.930Z,19.23
2019-03-10T07:37:41.572Z,9.03
2019-03-10T07:40:39.466Z,12.27
2019-03-10T07:43:15.039Z,12.77
2019-03-10T07:46:00.096Z,12.73
2019-03-10T07:48:54.554Z,11.00
2019-03-10T07:51:37.901Z,8.50
2019-03-10T07:54:38.398Z,10.57
2019-03-10T07:57:28.938Z,10.10
2019-03-10T08:00:35.773Z,10.03
2019-03-10T08:03:19.123Z,8.90
2019-03-10T08:06:14.148Z,10.13
2019-03-10T08:09:03.262Z,12.73
2019-03-10T08:12:00.359Z,13.87
2019-03-10T08:14:59.718Z,13.63
2019-03-10T08:17:52.366Z,13.27
2019-03-10T08:20:27.088Z,12.03
2019-03-10T08:23:15.074Z,15.90
2019-03-10T08:25:55.279Z,11.47
2019-03-10T08:28:43.897Z,10.67
2019-03-10T08:31:50.755Z,12.37
2019-03-10T08:34:38.065Z,8.57
2019-03-10T08:37:19.411Z,8.90
2019-03-10T08:40:06.664Z,12.80
2019-03-10T08:43:11.118Z,8.07
2019-03-10T08:45:51.383Z,4.30
2019-03-10T08:48:40.163Z,3.30
2019-03-10T08:51:33.908Z,5.10
2019-03-10T08:54:27.169Z,3.80
2019-03-10T08:57:21.693Z,5.70
2019-03-10T09:00:07.168Z,3.47
2019-03-10T09:02:56.098Z,5.97
2019-03-10T09:05:47.794Z,3.57
2019-03-10T09:08:45.252Z,5.60
2019-03-10T09:11:51.958Z,6.10
2019-03-10T09:14:32.441Z,4.27
2019-03-10T09:17:27.117Z,3.93
2019-03-10T09:20:15.425Z,6.80
2019-03-10T09:23:07.250Z,2.77
2019-03-10T09:25:59.040Z,6.10
2019-03-10T09:29:00.284Z,4.37
2019-03-10T09:31:48.830Z,3.93
2019-03-10T09:34:55.737Z,7.43
2019-03-10T09:37:42.986Z,4.27
2019-03-10T09:40:50.257Z,8.17
2019-03-10T09:43:47.720Z,5.13
2019-03-10T09:46:39.403Z,7.40
2019-03-10T09:49:37.166Z,13.10
2019-03-10T09:52:41.278Z,3.37
2019-03-10T09:55:18.817Z,3.93
2019-03-10T09:58:07.765Z,3.40
2019-03-10T10:00:59.289Z,6.77
2019-03-10T10:03:57.542Z,5.53
2019-03-10T10:06:45.833Z,4.20
2019-03-10T10:09:35.120Z,7.00
2019-03-10T10:12:21.789Z,7.80
2019-03-10T10:15:20.722Z,9.63
2019-03-10T10:18:24.651Z,5.67
2019-03-10T10:21:19.897Z,5.77
2019-03-10T10:24:11.282Z,8.13
2019-03-10T10:26:58.432Z,8.60
2019-03-10T10:29:36.128Z,11.43
2019-03-10T10:32:33.891Z,11.97
2019-03-10T10:35:11.245Z,8.43
2019-03-10T10:37:58.755Z,10.40
2019-03-10T10:40:59.242Z,12.30
2019-03-10T10:43:41.109Z,9.70
2019-03-10T10:46:27.969Z,9.27
2019-03-10T10:49:06.390Z,18.43
2019-03-10T10:52:03.964Z,15.37
2019-03-10T10:54:45.236Z,12.73
2019-03-10T10:57:40.219Z,11.60
2019-03-10T11:00:28.803Z,12.07
2019-03-10T11:03:23.766Z,6.17
2019-03-10T11:06:19.792Z,9.27
2019-03-10T11:09:17.462Z,10.27
2019-03-10T11:12:04.618Z,11.83
2019-03-10T11:14:56.571Z,9.53
2019-03-10T11:17:51.226Z,8.33
2019-03-10T11:20:40.045Z,8.90
2019-03-10T11:23:40.458Z,8.27
2019-03-10T11:26:15.511Z,8.67
2019-03-10T11:29:18.937Z,13.03
2019-03-10T11:31:56.174Z,11.43
2019-03-10T11:34:50.562Z,8.23
2019-03-10T11:37:32.454Z,16.10
2019-03-10T11:40:20.197Z,11.30
2019-03-10T11:43:27.125Z,20.07
2019-03-10T11:46:22.680Z,18.70
2019-03-10T11:49:11.397Z,14.40
2019-03-10T11:52:18.314Z,11.83
2019-03-10T11:55:09.833Z,17.23
2019-03-10T11:57:56.719Z,9.70
2019-03-10T12:00:43.769Z,12.00
2019-03-10T12:03:39.091Z,10.27
2019-03-10T12:06:30.587Z,16.73
2019-03-10T12:09:19.618Z,22.43
2019-03-10T12:11:50.057Z,12.10
2019-03-10T12:14:20.112Z,10.70
2019-03-10T12:16:50.156Z,10.40
2019-03-10T12:19:20.785Z,11.63
2019-03-10T12:21:50.839Z,21.77
2019-03-10T12:24:20.764Z,18.10
2019-03-10T12:26:50.913Z,15.57
2019-03-10T12:29:21.427Z,18.20
2019-03-10T12:31:51.621Z,15.63
2019-03-10T12:34:21.443Z,22.57
2019-03-10T12:36:51.104Z,15.10
2019-03-10T12:39:21.326Z,20.40
2019-03-10T12:41:58.304Z,15.03
2019-03-10T12:44:23.236Z,17.17
2019-03-10T12:46:52.882Z,17.67
2019-03-10T12:49:23.044Z,21.87
2019-03-10T12:51:54.073Z,19.50
2019-03-10T12:54:24.085Z,23.33
2019-03-10T12:56:53.981Z,20.07
2019-03-10T12:59:23.995Z,18.03
2019-03-10T13:01:53.728Z,19.23
2019-03-10T13:04:24.087Z,15.70
2019-03-10T13:06:54.197Z,19.60
2019-03-10T13:09:23.971Z,12.07
2019-03-10T13:11:54.304Z,21.63
2019-03-10T13:14:24.526Z,15.60
2019-03-10T13:16:54.369Z,12.57
2019-03-10T13:19:24.018Z,17.93
2019-03-10T13:21:53.761Z,12.70
2019-03-10T13:24:23.544Z,15.30
2019-03-10T13:26:53.869Z,6.10
2019-03-10T13:29:24.042Z,4.43
2019-03-10T13:31:53.632Z,3.00
2019-03-10T13:34:23.206Z,2.60
2019-03-10T13:36:53.856Z,4.93
2019-03-10T13:39:23.524Z,4.23
2019-03-10T13:41:53.554Z,3.50
2019-03-10T13:44:24.928Z,9.53
2019-03-10T13:46:55.042Z,9.33
2019-03-10T13:49:25.240Z,3.80
2019-03-10T13:51:55.292Z,3.83
2019-03-10T13:54:25.391Z,3.93
2019-03-10T13:56:57.907Z,4.17
2019-03-10T13:59:27.157Z,7.60
2019-03-10T14:01:57.559Z,4.80
2019-03-10T14:04:27.974Z,6.30
2019-03-10T14:06:58.719Z,3.73
2019-03-10T14:09:28.915Z,4.83
2019-03-10T14:11:58.605Z,9.30
2019-03-10T14:14:29.093Z,7.00
2019-03-10T14:16:59.223Z,8.07
2019-03-10T14:19:29.005Z,6.83
2019-03-10T14:21:59.522Z,9.20
2019-03-10T14:24:29.471Z,9.63
2019-03-10T14:26:59.086Z,9.50
2019-03-10T14:29:29.061Z,8.03
2019-03-10T14:31:58.810Z,7.07
2019-03-10T14:34:28.886Z,3.87
2019-03-10T14:36:59.238Z,10.00
2019-03-10T14:39:28.924Z,13.73
2019-03-10T14:41:59.348Z,3.40
2019-03-10T14:44:29.500Z,12.10
2019-03-10T14:46:59.437Z,14.97
2019-03-10T14:49:29.371Z,6.97
2019-03-10T14:51:59.359Z,5.83
2019-03-10T14:54:29.319Z,13.40
2019-03-10T14:56:59.335Z,4.70
2019-03-10T14:59:29.583Z,5.63
2019-03-10T15:02:00.436Z,2.90
2019-03-10T15:04:30.067Z,8.07
2019-03-10T15:07:00.265Z,4.70
2019-03-10T15:09:30.143Z,3.00
2019-03-10T15:11:59.967Z,3.03
2019-03-10T15:14:29.663Z,2.53
2019-03-10T15:17:01.754Z,5.13
2019-03-10T15:19:30.753Z,4.43
2019-03-10T15:22:00.510Z,5.23
2019-03-10T15:24:30.266Z,6.70
2019-03-10T15:27:00.020Z,4.43
2019-03-10T15:29:30.707Z,2.17
2019-03-10T15:32:00.381Z,2.13
2019-03-10T15:34:30.717Z,5.33
2019-03-10T15:37:01.205Z,2.67
2019-03-10T15:39:31.073Z,2.70
2019-03-10T15:42:01.065Z,6.60
2019-03-10T15:44:30.778Z,6.77
2019-03-10T15:47:00.748Z,6.33
2019-03-10T15:49:30.718Z,4.37
2019-03-10T15:52:00.801Z,8.50
2019-03-10T15:54:50.436Z,5.27
2019-03-10T15:57:20.459Z,2.60
2019-03-10T15:59:50.201Z,1.87
2019-03-10T16:02:20.218Z,6.03
2019-03-10T16:04:50.264Z,2.00
2019-03-10T16:07:20.432Z,2.50
2019-03-10T16:09:50.295Z,3.07
2019-03-10T16:12:20.417Z,1.10
2019-03-10T16:14:50.098Z,0.80
2019-03-10T16:17:20.099Z,2.20
2019-03-10T16:19:49.740Z,2.70
2019-03-10T16:22:19.555Z,2.40
2019-03-10T16:24:49.368Z,1.10
2019-03-10T16:27:19.511Z,5.00
2019-03-10T16:29:49.296Z,1.73
2019-03-10T16:32:19.251Z,1.57
2019-03-10T16:34:49.002Z,2.40
2019-03-10T16:37:19.167Z,1.50
2019-03-10T16:39:49.420Z,4.00
2019-03-10T16:42:19.917Z,5.23
2019-03-10T16:44:49.710Z,2.80
2019-03-10T16:47:19.487Z,2.70
2019-03-10T16:49:49.747Z,1.97
2019-03-10T16:52:19.454Z,1.30
2019-03-10T16:54:49.545Z,3.97
2019-03-10T16:57:19.675Z,1.57
2019-03-10T16:59:49.354Z,3.37
2019-03-10T17:02:19.089Z,0.90
2019-03-10T17:04:48.799Z,2.30
2019-03-10T17:07:19.384Z,2.27
2019-03-10T17:09:49.414Z,2.10
2019-03-10T17:12:19.136Z,0.90
2019-03-10T17:14:48.921Z,3.63
2019-03-10T17:17:18.847Z,3.67
2019-03-10T17:19:48.959Z,5.97
2019-03-10T17:22:18.915Z,5.00
2019-03-10T17:24:48.651Z,1.63
2019-03-10T17:27:18.630Z,3.63
2019-03-10T17:29:48.631Z,2.90
2019-03-10T17:32:18.255Z,7.97
2019-03-10T17:34:48.309Z,3.00
2019-03-10T17:37:17.963Z,4.20
2019-03-10T17:39:48.259Z,3.30
2019-03-10T17:42:18.257Z,2.50
2019-03-10T17:44:48.366Z,1.40
2019-03-10T17:47:18.539Z,3.87
2019-03-10T17:49:48.305Z,3.37
2019-03-10T17:52:18.343Z,2.60
2019-03-10T17:54:48.646Z,2.73
2019-03-10T17:57:18.619Z,2.40
2019-03-10T17:59:48.396Z,2.47
2019-03-10T18:02:18.478Z,5.63
2019-03-10T18:04:48.745Z,4.03
2019-03-10T18:07:18.793Z,1.30
2019-03-10T18:09:48.445Z,1.80
2019-03-10T18:12:18.395Z,10.47
2019-03-10T18:14:48.072Z,2.30
2019-03-10T18:17:18.234Z,4.43
2019-03-10T18:19:48.023Z,2.50
2019-03-10T18:22:17.725Z,3.93
2019-03-10T18:24:47.902Z,7.03
2019-03-10T18:27:17.611Z,5.50
2019-03-10T18:29:47.752Z,2.47
2019-03-10T18:32:17.802Z,11.87
2019-03-10T18:34:47.590Z,4.23
2019-03-10T18:37:17.287Z,5.13
2019-03-10T18:39:47.116Z,2.00
2019-03-10T18:42:17.356Z,6.27
2019-03-10T18:44:47.224Z,5.30
2019-03-10T18:47:17.264Z,5.43
2019-03-10T18:49:46.941Z,13.83
2019-03-10T18:52:16.927Z,1.97
2019-03-10T18:54:46.996Z,5.17
2019-03-10T18:57:16.631Z,5.10
2019-03-10T18:59:46.699Z,3.63
2019-03-10T19:02:16.456Z,6.73
2019-03-10T19:04:46.499Z,5.60
2019-03-10T19:07:16.382Z,5.33
2019-03-10T19:09:46.527Z,4.57
2019-03-10T19:12:16.862Z,3.00
2019-03-10T19:14:46.905Z,4.17
2019-03-10T19:17:17.637Z,8.23
2019-03-10T19:19:47.671Z,3.47
2019-03-10T19:22:17.666Z,3.17
2019-03-10T19:24:47.958Z,5.30
2019-03-10T19:27:17.623Z,6.73
2019-03-10T19:29:47.929Z,4.63
2019-03-10T19:32:17.938Z,5.93
2019-03-10T19:34:47.647Z,4.53
2019-03-10T19:37:17.653Z,5.93
2019-03-10T19:39:47.807Z,5.20
2019-03-10T19:42:17.494Z,3.73
2019-03-10T19:44:47.577Z,5.40
2019-03-10T19:47:18.268Z,5.80
2019-03-10T19:49:48.004Z,8.63
2019-03-10T19:52:18.062Z,4.50
2019-03-10T19:54:48.520Z,2.80
2019-03-10T19:57:18.972Z,4.30
2019-03-10T19:59:48.514Z,6.10
2019-03-10T20:02:18.089Z,4.70
2019-03-10T20:04:48.257Z,3.57
2019-03-10T20:07:18.691Z,2.30
2019-03-10T20:09:49.110Z,2.57
2019-03-10T20:12:18.985Z,3.60
2019-03-10T20:14:48.926Z,5.30
2019-03-10T20:17:19.184Z,2.03
2019-03-10T20:19:48.862Z,5.17
2019-03-10T20:22:19.658Z,5.53
2019-03-10T20:24:49.604Z,3.93
2019-03-10T20:27:19.314Z,4.50
2019-03-10T20:29:49.445Z,6.07
2019-03-10T20:32:19.382Z,3.40
2019-03-10T20:34:49.665Z,3.63
2019-03-10T20:37:19.653Z,4.17
2019-03-10T20:39:50.014Z,3.93
2019-03-10T20:42:20.528Z,3.43
2019-03-10T20:44:50.549Z,4.37
2019-03-10T20:47:20.885Z,2.10
2019-03-10T20:49:51.008Z,11.37
2019-03-10T20:52:20.942Z,5.70
2019-03-10T20:54:50.994Z,4.00
2019-03-10T20:57:20.625Z,3.70
2019-03-10T21:00:00.253Z,2.13
2019-03-10T21:02:21.771Z,6.40
2019-03-10T21:04:52.001Z,5.27
2019-03-10T21:07:21.995Z,6.23
2019-03-10T21:09:52.026Z,5.97
2019-03-10T21:12:21.819Z,4.70
2019-03-10T21:14:51.841Z,5.37
2019-03-10T21:17:21.493Z,4.30
2019-03-10T21:19:51.488Z,3.77
2019-03-10T21:22:21.476Z,6.43
2019-03-10T21:24:51.150Z,6.60
2019-03-10T21:27:21.886Z,3.30
2019-03-10T21:29:52.672Z,5.33
2019-03-10T21:32:22.665Z,12.97
2019-03-10T21:34:52.315Z,6.13
2019-03-10T21:37:21.991Z,4.97
2019-03-10T21:39:51.830Z,5.13
2019-03-10T21:42:21.497Z,4.80
2019-03-10T21:44:51.343Z,5.67
2019-03-10T21:47:21.740Z,8.17
2019-03-10T21:49:51.795Z,7.50
2019-03-10T21:52:22.156Z,6.60
2019-03-10T21:54:51.887Z,8.40
2019-03-10T21:57:21.640Z,7.83
2019-03-10T21:59:51.423Z,6.17
2019-03-10T22:02:21.115Z,9.30
2019-03-10T22:04:50.908Z,6.47
2019-03-10T22:07:20.665Z,5.60
2019-03-10T22:09:50.668Z,11.53
2019-03-10T22:12:20.688Z,5.10
2019-03-10T22:14:50.382Z,3.43
2019-03-10T22:17:20.292Z,5.70
2019-03-10T22:19:50.088Z,6.00
2019-03-10T22:22:21.102Z,7.00
2019-03-10T22:24:51.022Z,12.33
2019-03-10T22:27:20.683Z,4.77
2019-03-10T22:29:51.480Z,6.80
2019-03-10T22:32:21.136Z,8.73
2019-03-10T22:34:51.402Z,10.90
2019-03-10T22:37:21.459Z,12.13
2019-03-10T22:39:50.991Z,6.53
2019-03-10T22:42:20.684Z,7.73
2019-03-10T22:44:50.378Z,16.00
2019-03-10T22:47:20.105Z,5.00
2019-03-10T22:49:50.359Z,5.53
2019-03-10T22:52:20.003Z,7.73
2019-03-10T22:54:50.070Z,6.13
2019-03-10T22:57:20.157Z,9.77
2019-03-10T22:59:49.962Z,10.00
2019-03-10T23:02:19.993Z,4.60
2019-03-10T23:04:49.669Z,5.43
2019-03-10T23:07:19.213Z,3.20
2019-03-10T23:09:49.556Z,9.43
2019-03-10T23:12:19.224Z,5.40
2019-03-10T23:14:48.914Z,3.43
2019-03-10T23:17:18.759Z,9.97
2019-03-10T23:19:48.853Z,10.30
2019-03-10T23:22:18.534Z,6.53
2019-03-10T23:24:48.568Z,5.53
2019-03-10T23:27:18.304Z,12.30
2019-03-10T23:29:47.972Z,11.67
2019-03-10T23:32:18.012Z,11.37
2019-03-10T23:34:47.812Z,4.13
2019-03-10T23:37:17.927Z,8.03
2019-03-10T23:39:48.064Z,6.70
2019-03-10T23:42:18.083Z,6.93
2019-03-10T23:44:48.161Z,7.93
2019-03-10T23:47:18.227Z,6.13
2019-03-10T23:49:47.906Z,14.93
2019-03-10T23:52:17.825Z,13.83
2019-03-10T23:54:47.513Z,7.53
2019-03-10T23:57:17.235Z,7.17
2019-03-10T23:59:46.946Z,10.67
